Time;durP1;ratioP1;P1;durP2;ratioP2;P2;SDS_P1;SDS_P2;PMS_P1;PMS_P2;Temp;Humidity;BMP_temperature;BMP_pressure;BME280_temperature;BME280_humidity;BME280_pressure;Samples;Min_cycle;Max_cycle;Signal;HPM_P1;HPM_P2
2023/01/27 00:00:38;;;;;;;26.58;15.88;;;-0.50;99.90;;;;;;5093369;28;20024;-54
2023/01/27 00:03:03;;;;;;;27.02;15.70;;;-0.50;99.90;;;;;;5093277;28;20024;-54
2023/01/27 00:05:29;;;;;;;23.52;15.13;;;-0.50;99.90;;;;;;5093270;28;20020;-54
2023/01/27 00:07:57;;;;;;;23.33;14.90;;;-0.50;99.90;;;;;;5092942;28;20020;-55
2023/01/27 00:10:23;;;;;;;24.40;14.32;;;-0.50;99.90;;;;;;5093448;28;20032;-55
2023/01/27 00:15:34;;;;;;;23.08;14.40;;;-0.50;99.90;;;;;;5093260;28;20077;-56
2023/01/27 00:18:00;;;;;;;24.40;14.73;;;-0.50;99.90;;;;;;5092914;28;20355;-52
2023/01/27 00:26:05;;;;;;;22.60;14.35;;;-0.40;99.90;;;;;;5092909;28;20043;-53
2023/01/27 00:28:34;;;;;;;24.17;15.52;;;-0.40;99.90;;;;;;5092767;28;20117;-55
2023/01/27 00:31:00;;;;;;;22.48;15.07;;;-0.40;99.90;;;;;;5091507;28;20028;-52
2023/01/27 00:33:27;;;;;;;22.48;13.75;;;-0.50;99.90;;;;;;5091561;28;20036;-56
2023/01/27 00:36:00;;;;;;;20.88;13.90;;;-0.50;99.90;;;;;;5092866;28;20039;-51
2023/01/27 00:38:26;;;;;;;;;;;-0.50;99.90;;;;;;5093177;28;20028;-53
2023/01/27 00:43:36;;;;;;;22.73;14.45;;;-0.50;99.90;;;;;;5092608;28;20114;-53
2023/01/27 00:46:02;;;;;;;24.85;13.93;;;-0.50;99.90;;;;;;5092455;28;20956;-54
2023/01/27 00:48:27;;;;;;;23.75;14.10;;;-0.50;99.90;;;;;;5091079;28;20471;-54
2023/01/27 00:50:53;;;;;;;20.33;13.25;;;-0.50;99.90;;;;;;5092371;28;20058;-52
2023/01/27 00:53:19;;;;;;;24.15;14.32;;;-0.50;99.90;;;;;;5092529;28;20027;-53
2023/01/27 00:55:46;;;;;;;19.05;13.00;;;-0.50;99.90;;;;;;5092365;28;20458;-52
2023/01/27 00:58:12;;;;;;;22.15;14.63;;;-0.50;99.90;;;;;;5092342;28;20020;-52
2023/01/27 01:00:38;;;;;;;25.17;15.20;;;-0.50;99.90;;;;;;5092410;28;20103;-54
2023/01/27 01:03:03;;;;;;;26.27;14.93;;;-0.50;99.90;;;;;;5092110;28;20111;-55
2023/01/27 01:05:29;;;;;;;23.48;15.07;;;-0.50;99.90;;;;;;5091428;28;20654;-54
2023/01/27 01:07:55;;;;;;;21.88;14.45;;;-0.60;99.90;;;;;;5091984;28;20066;-53
2023/01/27 01:10:20;;;;;;;20.45;14.15;;;-0.60;99.90;;;;;;5090998;28;20505;-52
2023/01/27 01:12:46;;;;;;;24.88;14.48;;;-0.50;99.90;;;;;;5091858;28;20028;-52
2023/01/27 01:15:12;;;;;;;24.70;14.07;;;-0.50;99.90;;;;;;5092115;28;20028;-55
2023/01/27 01:17:37;;;;;;;23.33;14.50;;;-0.50;99.90;;;;;;5092106;28;20433;-55
2023/01/27 01:20:03;;;;;;;23.95;15.25;;;-0.50;99.90;;;;;;5091936;28;20059;-52
2023/01/27 01:22:29;;;;;;;24.88;14.65;;;-0.50;99.90;;;;;;5091979;28;20020;-54
2023/01/27 01:24:55;;;;;;;26.52;14.10;;;-0.50;99.90;;;;;;5091791;28;20024;-53
2023/01/27 01:27:21;;;;;;;25.63;14.90;;;-0.50;99.90;;;;;;5091854;28;20028;-51
2023/01/27 01:29:47;;;;;;;21.92;14.10;;;-0.50;99.90;;;;;;5091872;28;20020;-55
2023/01/27 01:32:12;;;;;;;29.33;14.75;;;-0.60;99.90;;;;;;5091846;28;20088;-53
2023/01/27 01:34:38;;;;;;;27.45;15.93;;;-0.60;99.90;;;;;;5091898;28;20035;-55
2023/01/27 01:37:04;;;;;;;26.98;16.20;;;-0.60;99.90;;;;;;5091706;28;20024;-54
2023/01/27 01:39:31;;;;;;;25.20;14.70;;;-0.60;99.90;;;;;;5091774;28;20027;-54
2023/01/27 01:41:56;;;;;;;25.83;15.40;;;-0.60;99.90;;;;;;5091474;28;20043;-53
2023/01/27 01:44:25;;;;;;;26.48;15.45;;;-0.60;99.90;;;;;;5091873;28;20144;-54
2023/01/27 01:46:51;;;;;;;26.55;14.05;;;-0.60;99.90;;;;;;5091583;28;20400;-54
2023/01/27 01:49:22;;;;;;;27.70;14.73;;;-0.60;99.90;;;;;;5091724;28;20105;-52
2023/01/27 01:51:56;;;;;;;27.90;15.02;;;-0.50;99.90;;;;;;5091324;28;20024;-54
2023/01/27 01:54:36;;;;;;;25.05;15.38;;;-0.50;99.90;;;;;;5091782;28;20020;-54
2023/01/27 01:57:09;;;;;;;23.48;14.93;;;-0.50;99.90;;;;;;5091357;28;20032;-56
2023/01/27 02:00:03;;;;;;;29.35;16.45;;;-0.60;99.90;;;;;;5091726;28;20082;-52
2023/01/27 02:02:30;;;;;;;30.00;16.15;;;-0.70;99.90;;;;;;5091527;28;20031;-51
2023/01/27 02:05:01;;;;;;;24.55;15.52;;;-0.70;99.90;;;;;;5091491;28;20031;-54
2023/01/27 02:07:39;;;;;;;25.30;13.35;;;-0.60;99.90;;;;;;5091597;28;20034;-53
2023/01/27 02:10:05;;;;;;;28.90;15.63;;;-0.60;99.90;;;;;;5091070;28;20048;-55
2023/01/27 02:12:30;;;;;;;29.38;16.27;;;-0.50;99.90;;;;;;5091440;28;20047;-56
2023/01/27 02:14:56;;;;;;;25.10;14.63;;;-0.50;99.90;;;;;;5091376;28;20024;-51
2023/01/27 02:17:22;;;;;;;27.33;14.43;;;-0.50;99.90;;;;;;5094485;28;20019;-51
2023/01/27 02:20:25;;;;;;;28.15;15.48;;;-0.60;99.90;;;;;;5095240;28;20020;-55
2023/01/27 02:23:15;;;;;;;23.67;14.88;;;-0.60;99.90;;;;;;5095386;28;20409;-55
2023/01/27 02:25:58;;;;;;;26.83;14.48;;;-0.50;99.90;;;;;;5095307;28;20028;-55
2023/01/27 02:28:27;;;;;;;25.02;16.20;;;-0.50;99.90;;;;;;5095131;28;20024;-53
2023/01/27 02:30:52;;;;;;;24.92;14.10;;;-0.50;99.90;;;;;;5094987;28;20035;-49
2023/01/27 02:33:18;;;;;;;24.42;14.45;;;-0.50;99.90;;;;;;5095216;28;20520;-56
2023/01/27 02:36:06;;;;;;;25.67;14.38;;;-0.60;99.90;;;;;;5094008;28;20028;-57
2023/01/27 02:38:38;;;;;;;32.08;15.77;;;-0.60;99.90;;;;;;5095064;28;20028;-57
2023/01/27 02:41:13;;;;;;;27.88;16.27;;;-0.60;99.90;;;;;;5094879;28;20047;-55
2023/01/27 02:43:39;;;;;;;27.98;14.75;;;-0.60;99.90;;;;;;5094935;28;20059;-57
2023/01/27 02:46:04;;;;;;;29.20;16.75;;;-0.60;99.90;;;;;;5093448;28;20051;-53
2023/01/27 02:48:30;;;;;;;29.85;16.45;;;-0.60;99.90;;;;;;5094935;28;20019;-54
2023/01/27 02:50:56;;;;;;;27.27;16.10;;;-0.60;99.90;;;;;;5094663;28;20075;-57
2023/01/27 02:53:21;;;;;;;28.60;15.32;;;-0.60;99.90;;;;;;5094587;28;20082;-58
2023/01/27 02:55:47;;;;;;;24.75;15.32;;;-0.60;99.90;;;;;;5094392;28;20095;-57
2023/01/27 02:58:15;;;;;;;25.60;15.35;;;-0.60;99.90;;;;;;5093343;28;20024;-56
2023/01/27 03:00:41;;;;;;;28.35;15.77;;;-0.60;99.90;;;;;;5094764;28;20028;-55
2023/01/27 03:03:10;;;;;;;26.40;15.55;;;-0.60;99.90;;;;;;5094593;28;20024;-56
2023/01/27 03:05:35;;;;;;;28.83;17.25;;;-0.60;99.90;;;;;;5094380;28;20055;-55
2023/01/27 03:08:01;;;;;;;24.10;15.68;;;-0.70;99.90;;;;;;5093857;28;20063;-56
2023/01/27 03:10:27;;;;;;;26.50;15.15;;;-0.60;99.90;;;;;;5094962;28;20138;-57
2023/01/27 03:12:52;;;;;;;27.83;15.15;;;-0.60;99.90;;;;;;5094303;28;20040;-56
2023/01/27 03:18:16;;;;;;;27.33;15.15;;;-0.60;99.90;;;;;;5094097;28;20579;-54
2023/01/27 03:20:48;;;;;;;26.08;15.32;;;-0.60;99.90;;;;;;5094132;28;20024;-55
2023/01/27 03:23:15;;;;;;;27.50;16.13;;;-0.60;99.90;;;;;;5094083;28;20027;-55
2023/01/27 03:25:47;;;;;;;27.77;16.80;;;-0.60;99.90;;;;;;5094142;28;20028;-57
2023/01/27 03:28:13;;;;;;;27.65;15.48;;;-0.70;99.90;;;;;;5092939;28;20426;-56
2023/01/27 03:30:40;;;;;;;27.35;16.60;;;-0.70;99.90;;;;;;5093998;28;20028;-55
2023/01/27 03:33:06;;;;;;;29.15;16.10;;;-0.70;99.90;;;;;;5093447;28;20181;-53
2023/01/27 03:35:47;;;;;;;27.35;16.00;;;-0.60;99.90;;;;;;5093826;28;20024;-51
2023/01/27 03:46:31;;;;;;;29.33;16.67;;;-0.80;99.90;;;;;;5094776;28;20105;-51
2023/01/27 03:48:58;;;;;;;29.25;16.00;;;-0.90;99.90;;;;;;5093444;28;20028;-53
2023/01/27 03:51:25;;;;;;;25.80;16.15;;;-0.90;99.90;;;;;;5093632;28;20107;-49
2023/01/27 03:53:51;;;;;;;29.45;16.70;;;-0.90;99.90;;;;;;5093390;28;20024;-54
2023/01/27 03:56:19;;;;;;;31.85;17.10;;;-0.90;99.90;;;;;;5093611;28;20043;-54
2023/01/27 03:58:49;;;;;;;32.58;17.20;;;-0.90;99.90;;;;;;5093319;28;20054;-55
2023/01/27 04:01:16;;;;;;;30.65;16.65;;;-0.90;99.90;;;;;;5093485;28;20089;-56
2023/01/27 04:09:19;;;;;;;29.17;16.77;;;-0.80;99.90;;;;;;5093207;28;20050;-53
2023/01/27 04:11:55;;;;;;;25.38;14.60;;;-0.80;99.90;;;;;;5092949;28;20433;-51
2023/01/27 04:14:40;;;;;;;25.80;14.30;;;-0.80;99.90;;;;;;5093259;28;20149;-52
2023/01/27 04:17:16;;;;;;;28.13;15.45;;;-0.70;99.90;;;;;;5092881;28;20107;-53
2023/01/27 04:19:41;;;;;;;27.52;16.08;;;-0.60;99.90;;;;;;5093119;28;20020;-55
2023/01/27 04:22:10;;;;;;;27.30;16.55;;;-0.60;99.90;;;;;;5092865;28;20366;-53
2023/01/27 04:24:35;;;;;;;24.40;15.02;;;-0.60;99.90;;;;;;5093011;28;20711;-53
2023/01/27 04:27:04;;;;;;;54.72;28.02;;;-0.60;99.90;;;;;;5092732;28;20074;-49
2023/01/27 04:29:35;;;;;;;49.95;25.05;;;-0.70;99.90;;;;;;5092965;28;20023;-53
2023/01/27 04:32:05;;;;;;;32.05;16.60;;;-0.70;99.90;;;;;;5092556;28;20024;-51
2023/01/27 04:34:31;;;;;;;26.63;15.75;;;-0.70;99.90;;;;;;5092886;28;20039;-55
2023/01/27 04:36:57;;;;;;;29.23;15.38;;;-0.70;99.90;;;;;;5092462;28;20060;-57
2023/01/27 04:39:23;;;;;;;26.20;15.25;;;-0.70;99.90;;;;;;5092542;28;20078;-50
2023/01/27 04:41:50;;;;;;;29.10;15.10;;;-0.60;99.90;;;;;;5092467;28;20511;-53
2023/01/27 04:44:16;;;;;;;24.38;14.75;;;-0.60;99.90;;;;;;5092837;28;20111;-53
2023/01/27 04:46:41;;;;;;;31.33;16.98;;;-0.60;99.90;;;;;;5092623;28;20530;-55
2023/01/27 04:49:07;;;;;;;23.67;14.00;;;-0.60;99.90;;;;;;5087165;28;20029;-55
2023/01/27 04:51:33;;;;;;;27.65;15.55;;;-0.60;99.90;;;;;;5072065;28;20028;-51
2023/01/27 04:54:00;;;;;;;25.40;16.52;;;-0.60;99.90;;;;;;5072039;28;20086;-52
2023/01/27 04:56:31;;;;;;;25.80;15.88;;;-0.60;99.90;;;;;;5072153;28;20028;-53
2023/01/27 04:59:03;;;;;;;31.48;16.38;;;-0.60;99.90;;;;;;5071974;28;20028;-56
2023/01/27 05:01:29;;;;;;;28.88;15.95;;;-0.60;99.90;;;;;;5072033;28;20028;-50
2023/01/27 05:03:55;;;;;;;27.13;15.38;;;-0.70;99.90;;;;;;5071863;28;20415;-55
2023/01/27 05:06:21;;;;;;;28.33;15.70;;;-0.70;99.90;;;;;;5070945;28;20033;-53
2023/01/27 05:08:48;;;;;;;32.00;16.45;;;-0.70;99.90;;;;;;5071980;28;20036;-50
2023/01/27 05:11:14;;;;;;;27.83;14.95;;;-0.70;99.90;;;;;;5072032;28;20033;-51
2023/01/27 05:13:40;;;;;;;29.15;16.27;;;-0.80;99.90;;;;;;5071478;28;20448;-53
2023/01/27 05:16:13;;;;;;;30.42;17.10;;;-0.80;99.90;;;;;;5064433;28;20036;-54
2023/01/27 05:18:40;;;;;;;;;;;-0.80;99.90;;;;;;5057861;28;20021;-55
2023/01/27 05:21:06;;;;;;;30.10;16.70;;;-0.80;99.90;;;;;;5051382;28;19904;-50
2023/01/27 05:23:35;;;;;;;29.70;17.08;;;-0.80;99.90;;;;;;5051613;28;20429;-53
2023/01/27 05:26:04;;;;;;;29.48;17.15;;;-0.80;99.90;;;;;;5058876;28;20032;-56
2023/01/27 05:28:29;;;;;;;30.67;17.70;;;-0.80;99.90;;;;;;5071831;28;20368;-55
2023/01/27 05:31:03;;;;;;;33.15;16.60;;;-0.80;99.90;;;;;;5071574;28;20028;-54
2023/01/27 05:33:29;;;;;;;33.25;18.33;;;-0.80;99.90;;;;;;5065442;28;20036;-52
2023/01/27 05:35:59;;;;;;;36.38;19.33;;;-0.80;99.90;;;;;;5051364;28;20024;-54
2023/01/27 05:38:24;;;;;;;34.58;18.95;;;-1.00;99.90;;;;;;5051535;28;20395;-52
2023/01/27 05:40:55;;;;;;;37.53;17.70;;;-1.00;99.90;;;;;;5051499;28;20025;-53
2023/01/27 05:43:21;;;;;;;29.95;16.58;;;-1.00;99.90;;;;;;5051354;28;20037;-57
2023/01/27 05:45:46;;;;;;;28.50;15.90;;;-1.00;99.90;;;;;;5051175;28;20417;-53
2023/01/27 05:48:12;;;;;;;29.10;15.60;;;-0.90;99.90;;;;;;5051223;28;20061;-52
2023/01/27 05:50:38;;;;;;;32.13;17.92;;;-0.80;99.90;;;;;;5051093;28;20033;-55
2023/01/27 05:53:03;;;;;;;28.75;14.50;;;-0.80;99.90;;;;;;5055347;28;20564;-57
2023/01/27 05:55:29;;;;;;;29.15;16.83;;;-0.80;99.90;;;;;;5055628;28;20048;-56
2023/01/27 05:57:54;;;;;;;30.50;15.52;;;-0.80;99.90;;;;;;5055429;28;20060;-54
2023/01/27 06:00:20;;;;;;;28.25;15.88;;;-0.70;99.90;;;;;;5055762;28;20055;-50
2023/01/27 06:02:46;;;;;;;30.90;17.00;;;-0.70;99.90;;;;;;5055125;28;20080;-53
2023/01/27 06:05:12;;;;;;;38.85;16.67;;;-0.70;99.90;;;;;;5055371;28;20036;-55
2023/01/27 06:07:37;;;;;;;27.88;15.00;;;-0.70;99.90;;;;;;5055045;28;20112;-55
2023/01/27 06:10:04;;;;;;;29.05;15.68;;;-0.70;99.90;;;;;;5054847;28;20056;-54
2023/01/27 06:12:30;;;;;;;30.98;16.65;;;-0.70;99.90;;;;;;5055105;28;20078;-55
2023/01/27 06:14:59;;;;;;;39.50;19.42;;;-0.70;99.90;;;;;;5055116;28;20415;-54
2023/01/27 06:17:24;;;;;;;32.40;16.23;;;-0.70;99.90;;;;;;5055053;28;20013;-60
2023/01/27 06:19:55;;;;;;;25.85;15.20;;;-0.70;99.90;;;;;;5055239;28;20573;-59
2023/01/27 06:22:21;;;;;;;27.08;15.93;;;-0.60;99.90;;;;;;5055074;28;20032;-58
2023/01/27 06:24:46;;;;;;;29.90;16.55;;;-0.70;99.90;;;;;;5054547;28;20464;-59
2023/01/27 06:27:12;;;;;;;27.83;15.70;;;-0.70;99.90;;;;;;5054856;28;20028;-59
2023/01/27 06:29:37;;;;;;;31.88;16.38;;;-0.70;99.90;;;;;;5054877;28;20017;-59
2023/01/27 06:32:03;;;;;;;27.38;16.45;;;-0.60;99.90;;;;;;5054388;28;20320;-58
2023/01/27 06:34:29;;;;;;;25.95;15.23;;;-0.70;99.90;;;;;;5054823;28;20017;-57
2023/01/27 06:36:54;;;;;;;29.02;16.60;;;-0.70;99.90;;;;;;5054576;28;20476;-57
2023/01/27 06:39:20;;;;;;;29.45;17.58;;;-0.70;99.90;;;;;;5054714;28;20032;-55
2023/01/27 06:41:48;;;;;;;29.77;16.23;;;-0.60;99.90;;;;;;5054696;28;20029;-58
2023/01/27 06:44:13;;;;;;;23.08;14.20;;;-0.70;99.90;;;;;;5054245;28;20025;-57
2023/01/27 06:46:39;;;;;;;25.88;15.80;;;-0.80;99.90;;;;;;5054494;28;20032;-55
2023/01/27 06:49:04;;;;;;;31.73;16.02;;;-0.80;99.90;;;;;;5054476;28;20527;-57
2023/01/27 06:51:30;;;;;;;34.08;17.13;;;-0.80;99.90;;;;;;5054510;28;20074;-53
2023/01/27 06:53:56;;;;;;;28.05;15.00;;;-0.90;99.90;;;;;;5053836;28;20025;-55
2023/01/27 06:57:15;;;;;;;28.83;16.80;;;-0.90;99.90;;;;;;5054619;28;20036;-53
2023/01/27 06:59:41;;;;;;;28.15;15.73;;;-0.90;99.90;;;;;;5053977;28;20028;-55
2023/01/27 07:02:10;;;;;;;27.98;15.35;;;-0.90;99.90;;;;;;5053922;28;20464;-56
2023/01/27 07:04:36;;;;;;;26.75;16.27;;;-0.80;99.90;;;;;;5054664;28;20086;-56
2023/01/27 07:07:02;;;;;;;30.85;16.63;;;-0.80;99.90;;;;;;5053511;28;20037;-53
2023/01/27 07:09:28;;;;;;;30.13;16.48;;;-0.80;99.90;;;;;;5053959;28;20083;-55
2023/01/27 07:11:53;;;;;;;29.50;16.80;;;-0.70;99.90;;;;;;5053848;28;20065;-58
2023/01/27 07:14:19;;;;;;;29.98;15.90;;;-0.70;99.90;;;;;;5054087;28;20048;-54
2023/01/27 07:16:47;;;;;;;27.17;15.40;;;-0.70;99.90;;;;;;5053843;28;20330;-55
2023/01/27 07:19:13;;;;;;;28.90;15.77;;;-0.60;99.90;;;;;;5054028;28;20040;-57
2023/01/27 07:21:39;;;;;;;28.75;16.95;;;-0.50;99.90;;;;;;5054044;28;20135;-58
2023/01/27 07:24:05;;;;;;;25.88;14.95;;;-0.40;99.90;;;;;;5053651;28;20029;-54
2023/01/27 07:26:31;;;;;;;30.05;16.20;;;-0.30;99.90;;;;;;5054223;28;20108;-54
2023/01/27 07:28:57;;;;;;;26.67;14.30;;;-0.30;99.90;;;;;;5053625;28;20167;-55
2023/01/27 07:31:22;;;;;;;28.13;16.00;;;-0.30;99.90;;;;;;5053771;28;20024;-51
2023/01/27 07:33:48;;;;;;;27.70;14.95;;;-0.20;99.90;;;;;;5053615;28;20036;-53
2023/01/27 07:36:14;;;;;;;43.90;24.33;;;-0.20;99.90;;;;;;5071808;28;20024;-57
2023/01/27 07:38:39;;;;;;;28.38;16.27;;;-0.30;99.90;;;;;;5073696;28;20031;-55
2023/01/27 07:41:06;;;;;;;29.75;16.65;;;-0.30;99.90;;;;;;5073279;28;20032;-55
2023/01/27 07:43:32;;;;;;;32.75;15.00;;;-0.30;99.90;;;;;;5072290;28;20039;-53
2023/01/27 07:45:59;;;;;;;28.05;15.52;;;-0.20;99.90;;;;;;5073230;28;20021;-52
2023/01/27 07:48:24;;;;;;;32.70;16.60;;;-0.20;99.90;;;;;;5072110;28;20455;-53
2023/01/27 07:50:50;;;;;;;34.55;16.27;;;-0.20;99.90;;;;;;5072140;28;20029;-54
2023/01/27 07:53:16;;;;;;;27.38;15.35;;;-0.10;99.90;;;;;;5072564;28;20020;-54
2023/01/27 07:55:42;;;;;;;28.40;14.43;;;-0.10;99.90;;;;;;5073542;28;20024;-59
2023/01/27 07:58:07;;;;;;;26.77;15.65;;;-0.10;99.90;;;;;;5073068;28;20013;-54
2023/01/27 08:00:34;;;;;;;28.35;14.63;;;-0.10;99.90;;;;;;5073357;28;20020;-55
2023/01/27 08:03:00;;;;;;;27.67;15.70;;;-0.10;99.90;;;;;;5073143;28;20016;-56
2023/01/27 08:05:28;;;;;;;31.30;15.88;;;-0.20;99.90;;;;;;5073449;28;20053;-56
2023/01/27 08:07:54;;;;;;;34.88;16.50;;;-0.20;99.90;;;;;;5072694;28;20032;-57
2023/01/27 08:10:21;;;;;;;27.40;15.70;;;-0.10;99.90;;;;;;5072527;28;20020;-57
2023/01/27 08:12:53;;;;;;;31.30;16.10;;;0.00;99.90;;;;;;5071461;28;20119;-55
2023/01/27 08:15:18;;;;;;;28.20;15.40;;;0.00;99.90;;;;;;5072485;28;20073;-50
2023/01/27 08:17:51;;;;;;;25.40;14.77;;;0.00;99.90;;;;;;5071532;28;20107;-50
2023/01/27 08:20:17;;;;;;;24.35;16.58;;;0.10;99.90;;;;;;5072845;28;20017;-55
2023/01/27 08:22:43;;;;;;;29.77;15.40;;;0.10;99.90;;;;;;5072674;28;20036;-59
2023/01/27 08:25:09;;;;;;;29.92;15.35;;;0.10;99.90;;;;;;5072748;28;20028;-50
2023/01/27 08:27:34;;;;;;;27.05;14.75;;;0.30;99.90;;;;;;5072335;28;20467;-53
2023/01/27 08:30:00;;;;;;;24.35;14.40;;;0.40;99.90;;;;;;5072574;28;20027;-59
2023/01/27 08:32:26;;;;;;;21.73;14.43;;;0.40;99.90;;;;;;5072163;28;20034;-60
2023/01/27 08:34:51;;;;;;;27.40;15.85;;;0.40;99.90;;;;;;5072056;28;20033;-59
2023/01/27 08:37:17;;;;;;;29.75;15.85;;;0.40;99.90;;;;;;5072021;28;20016;-59
2023/01/27 08:39:42;;;;;;;31.65;16.15;;;0.30;99.90;;;;;;5070667;28;20021;-59
2023/01/27 08:42:08;;;;;;;25.52;14.88;;;0.30;99.90;;;;;;5072573;28;20491;-60
2023/01/27 08:44:34;;;;;;;26.90;15.52;;;0.30;99.90;;;;;;5070746;28;20375;-60
2023/01/27 08:46:59;;;;;;;26.38;15.38;;;0.30;99.90;;;;;;5072228;28;20029;-60
2023/01/27 08:49:25;;;;;;;27.83;14.90;;;0.20;99.90;;;;;;5072223;28;20028;-60
2023/01/27 08:51:51;;;;;;;30.55;16.30;;;0.20;99.90;;;;;;5072073;28;20059;-60
2023/01/27 08:54:17;;;;;;;34.78;17.33;;;0.20;99.90;;;;;;5072323;28;20137;-59
2023/01/27 08:56:42;;;;;;;24.63;14.40;;;0.20;99.90;;;;;;5072008;28;20020;-59
2023/01/27 08:59:08;;;;;;;33.47;18.40;;;0.20;99.90;;;;;;5072224;28;20024;-60
2023/01/27 09:01:33;;;;;;;27.90;15.38;;;0.20;99.90;;;;;;5071971;28;20027;-60
2023/01/27 09:03:59;;;;;;;36.10;16.98;;;0.20;99.90;;;;;;5071953;28;20028;-61
2023/01/27 09:06:25;;;;;;;29.52;16.52;;;0.20;99.90;;;;;;5072051;28;20043;-61
2023/01/27 09:09:07;;;;;;;28.52;15.88;;;0.30;99.90;;;;;;5071965;28;20041;-60
2023/01/27 09:11:34;;;;;;;26.20;13.70;;;0.30;99.90;;;;;;5071830;28;20134;-60
2023/01/27 09:13:59;;;;;;;34.05;17.88;;;0.40;99.90;;;;;;5071667;28;20035;-61
2023/01/27 09:16:25;;;;;;;66.80;28.80;;;0.50;99.90;;;;;;5071879;28;20107;-60
2023/01/27 09:18:51;;;;;;;34.13;19.20;;;0.50;99.90;;;;;;5071009;28;20104;-60
2023/01/27 09:21:17;;;;;;;30.55;16.98;;;0.60;99.90;;;;;;5071869;28;20021;-60
2023/01/27 09:23:42;;;;;;;28.15;15.10;;;0.60;99.90;;;;;;5071846;28;20028;-60
2023/01/27 09:26:08;;;;;;;35.47;18.45;;;0.60;99.90;;;;;;5070620;28;20020;-60
2023/01/27 09:28:33;;;;;;;29.95;16.88;;;0.50;99.90;;;;;;5071784;28;20382;-60
2023/01/27 09:30:59;;;;;;;34.70;17.25;;;0.60;99.90;;;;;;5071525;28;20516;-61
2023/01/27 09:33:26;;;;;;;29.83;16.38;;;0.80;99.90;;;;;;5071588;28;20154;-60
2023/01/27 09:36:19;;;;;;;29.23;14.93;;;0.90;99.90;;;;;;5066322;28;20063;-61
2023/01/27 09:38:58;;;;;;;33.03;17.58;;;0.90;99.90;;;;;;5051161;28;20116;-60
2023/01/27 09:41:26;;;;;;;32.42;17.23;;;0.90;99.90;;;;;;5051903;28;20052;-61
2023/01/27 09:44:30;;;;;;;28.90;15.80;;;1.00;99.90;;;;;;5050079;28;20679;-61
2023/01/27 09:47:17;;;;;;;46.80;21.75;;;1.10;99.90;;;;;;5051502;28;20028;-59
2023/01/27 09:50:01;;;;;;;31.90;17.33;;;1.20;99.90;;;;;;5051590;28;20029;-61
2023/01/27 09:53:00;;;;;;;30.15;16.70;;;1.60;99.90;;;;;;5051714;28;20468;-61
2023/01/27 09:55:57;;;;;;;29.38;15.70;;;1.80;99.90;;;;;;5050257;28;20028;-61
2023/01/27 09:58:34;;;;;;;28.10;15.82;;;1.90;99.90;;;;;;5065387;28;20025;-61
2023/01/27 10:01:17;;;;;;;27.08;16.15;;;2.20;99.90;;;;;;5071116;28;20032;-61
2023/01/27 10:03:59;;;;;;;30.38;16.80;;;2.30;99.90;;;;;;5071614;28;20040;-61
2023/01/27 10:06:32;;;;;;;26.20;15.32;;;2.40;99.90;;;;;;5071462;28;20031;-61
2023/01/27 10:09:37;;;;;;;25.83;15.75;;;2.50;99.90;;;;;;5071040;28;20040;-61
2023/01/27 10:12:20;;;;;;;25.23;15.15;;;2.40;99.90;;;;;;5052912;28;20120;-61
2023/01/27 10:15:05;;;;;;;33.28;17.73;;;2.40;99.90;;;;;;5051022;28;20032;-62
2023/01/27 10:17:33;;;;;;;30.52;15.82;;;2.20;99.90;;;;;;5051537;28;20507;-61
2023/01/27 10:20:04;;;;;;;25.20;14.95;;;2.10;99.90;;;;;;5050837;28;20075;-62
2023/01/27 10:22:41;;;;;;;26.17;15.88;;;2.20;99.90;;;;;;5051207;28;20411;-61
2023/01/27 10:25:34;;;;;;;25.02;14.85;;;2.40;99.90;;;;;;5051336;28;20029;-62
2023/01/27 10:28:11;;;;;;;25.63;16.42;;;2.20;99.90;;;;;;5050826;28;20036;-62
2023/01/27 10:30:38;;;;;;;27.33;14.43;;;1.90;99.90;;;;;;5051075;28;20021;-61
2023/01/27 10:33:21;;;;;;;28.35;15.93;;;2.10;99.90;;;;;;5051043;28;20369;-62
2023/01/27 10:35:55;;;;;;;28.43;16.80;;;2.00;99.90;;;;;;5050895;28;20108;-59
2023/01/27 10:38:45;;;;;;;26.20;15.73;;;2.20;99.90;;;;;;5061650;28;20400;-61
2023/01/27 10:41:28;;;;;;;25.38;14.13;;;1.90;99.90;;;;;;5073317;28;20659;-60
2023/01/27 10:44:41;;;;;;;30.20;18.43;;;2.10;99.90;;;;;;5073347;28;20017;-63
2023/01/27 10:47:18;;;;;;;19.85;12.98;;;2.20;99.90;;;;;;5072885;28;20028;-62
2023/01/27 10:50:03;;;;;;;31.48;17.83;;;2.40;99.90;;;;;;5073658;28;20078;-61
2023/01/27 10:52:39;;;;;;;27.42;14.25;;;2.50;99.90;;;;;;5074177;28;20107;-60
2023/01/27 10:55:16;;;;;;;26.75;15.38;;;2.40;99.90;;;;;;5071226;28;20651;-62
2023/01/27 10:57:52;;;;;;;21.23;13.85;;;2.50;99.90;;;;;;5068015;28;20031;-62
2023/01/27 11:00:41;;;;;;;30.48;15.32;;;2.80;99.90;;;;;;5072529;28;20020;-63
2023/01/27 11:03:36;;;;;;;18.90;12.50;;;2.70;99.90;;;;;;5074246;28;20032;-63
2023/01/27 11:06:26;;;;;;;21.48;12.68;;;2.60;99.90;;;;;;5074426;28;20029;-62
2023/01/27 11:09:20;;;;;;;24.05;14.73;;;2.80;99.90;;;;;;5073459;28;20041;-63
2023/01/27 11:11:48;;;;;;;20.98;12.93;;;2.80;99.90;;;;;;5072971;28;20580;-61
2023/01/27 11:14:39;;;;;;;21.95;14.40;;;2.80;99.90;;;;;;5063899;28;20587;-62
2023/01/27 11:17:26;;;;;;;24.58;12.68;;;2.80;99.90;;;;;;5075202;28;20030;-62
2023/01/27 11:20:31;;;;;;;23.80;14.32;;;2.70;99.90;;;;;;5067292;28;20031;-61
2023/01/27 11:23:08;;;;;;;21.92;12.85;;;2.90;99.90;;;;;;5062541;28;20361;-62
2023/01/27 11:26:04;;;;;;;27.23;14.52;;;3.20;99.90;;;;;;5076362;28;20055;-62
2023/01/27 11:28:51;;;;;;;19.45;12.35;;;3.70;99.90;;;;;;5067829;28;20026;-62
2023/01/27 11:31:41;;;;;;;24.50;14.60;;;3.80;99.90;;;;;;5063770;28;20507;-62
2023/01/27 11:34:15;;;;;;;21.80;13.98;;;3.80;99.90;;;;;;5077077;28;20033;-62
2023/01/27 11:36:41;;;;;;;19.80;12.02;;;3.80;99.90;;;;;;5069720;28;20042;-62
2023/01/27 11:39:09;;;;;;;20.13;12.57;;;3.60;99.90;;;;;;5066413;28;20362;-61
2023/01/27 11:41:45;;;;;;;23.92;14.15;;;3.10;99.90;;;;;;5075510;28;20052;-62
2023/01/27 11:44:19;;;;;;;24.73;15.25;;;2.90;99.90;;;;;;5076870;28;20020;-62
2023/01/27 11:46:47;;;;;;;22.17;13.02;;;2.80;99.90;;;;;;5076293;28;20023;-61
2023/01/27 11:49:25;;;;;;;27.52;14.30;;;2.80;99.90;;;;;;5075622;28;20479;-61
2023/01/27 11:51:51;;;;;;;17.48;11.50;;;3.00;99.90;;;;;;5072769;28;20035;-61
2023/01/27 11:54:26;;;;;;;18.85;11.55;;;2.90;99.90;;;;;;5079716;28;20105;-60
2023/01/27 11:56:52;;;;;;;630.78;357.88;;;2.90;99.90;;;;;;5071371;28;20062;-61
2023/01/27 11:59:20;;;;;;;32.03;17.58;;;2.50;99.90;;;;;;5069561;28;20020;-62
2023/01/27 12:01:56;;;;;;;34.63;20.02;;;2.40;99.90;;;;;;5076362;28;20028;-61
2023/01/27 12:04:37;;;;;;;24.15;15.48;;;2.00;99.90;;;;;;5064453;28;20047;-62
2023/01/27 12:07:28;;;;;;;24.08;14.73;;;2.00;99.90;;;;;;5073350;28;20077;-62
2023/01/27 12:10:22;;;;;;;21.73;13.68;;;1.80;99.90;;;;;;5070798;28;20052;-62
2023/01/27 12:12:48;;;;;;;21.42;14.57;;;1.60;99.90;;;;;;5070014;28;20060;-62
2023/01/27 12:15:16;;;;;;;19.10;12.13;;;1.70;99.90;;;;;;5070752;28;20375;-62
2023/01/27 12:17:51;;;;;;;21.70;14.50;;;1.80;99.90;;;;;;5067563;28;20539;-62
2023/01/27 12:20:39;;;;;;;41.08;27.13;;;2.10;99.90;;;;;;5074277;28;20081;-62
2023/01/27 12:23:23;;;;;;;35.08;21.27;;;2.40;99.90;;;;;;5073199;28;20118;-62
2023/01/27 12:25:56;;;;;;;46.10;27.20;;;2.60;99.90;;;;;;5071584;28;20379;-62
2023/01/27 12:28:25;;;;;;;;;;;2.50;99.90;;;;;;5077576;28;20090;-62
2023/01/27 12:30:53;;;;;;;342.25;190.55;;;2.60;99.90;;;;;;5069084;28;19991;-62
2023/01/27 12:33:27;;;;;;;76.28;48.72;;;2.60;99.90;;;;;;5070273;28;20024;-63
2023/01/27 12:35:59;;;;;;;36.50;21.65;;;2.50;99.90;;;;;;5074316;28;20033;-61
2023/01/27 12:38:30;;;;;;;61.70;33.38;;;2.30;99.90;;;;;;5075964;28;20399;-62
2023/01/27 12:41:07;;;;;;;18.70;12.50;;;2.20;99.90;;;;;;5074223;28;20024;-61
2023/01/27 12:44:00;;;;;;;121.05;71.35;;;2.30;99.90;;;;;;5063657;28;20106;-61
2023/01/27 12:46:28;;;;;;;37.35;22.60;;;2.30;99.90;;;;;;5077328;28;20384;-62
2023/01/27 12:49:09;;;;;;;22.63;13.15;;;2.10;99.90;;;;;;5080160;28;20069;-61
2023/01/27 12:51:43;;;;;;;41.85;25.73;;;2.10;99.90;;;;;;5075340;28;20071;-62
2023/01/27 12:54:24;;;;;;;21.45;12.90;;;2.00;99.90;;;;;;5073871;28;20031;-61
2023/01/27 12:56:52;;;;;;;21.83;12.15;;;1.70;99.90;;;;;;5070541;28;20020;-61
2023/01/27 12:59:22;;;;;;;20.55;12.38;;;1.70;99.90;;;;;;5070395;28;20032;-61
2023/01/27 13:02:14;;;;;;;26.63;15.80;;;1.60;99.90;;;;;;5063813;28;20040;-61
2023/01/27 13:04:41;;;;;;;20.65;13.15;;;1.70;99.90;;;;;;5074008;28;20028;-62
2023/01/27 13:07:14;;;;;;;22.60;14.88;;;1.70;99.90;;;;;;5075122;28;20036;-62
2023/01/27 13:09:57;;;;;;;24.98;14.73;;;1.60;99.90;;;;;;5075720;28;20075;-63
2023/01/27 13:12:28;;;;;;;20.48;13.23;;;1.70;99.90;;;;;;5063415;28;20055;-62
2023/01/27 13:15:18;;;;;;;23.08;15.35;;;1.50;99.90;;;;;;5070243;28;20032;-63
2023/01/27 13:17:49;;;;;;;17.30;10.65;;;1.40;99.90;;;;;;5059897;28;20463;-62